Dades meteomassalio
Diari Summary for Diciembre 9, 2017 Units:  Both    English   Metric
« Previous Day
Next Day »
Diari Semanal Mensual Anual Personalitzat
  Maxima: Minima: Mijana:
Temperatura: TemperatureC °F /  -17.8 °C 5.6 °F /  -14.7 °C 8.1 °F /  -13.3 °C
Rosada: DewpointC °F /  -17.8 °C -0.9 °F /  -18.3 °C 2.3 °F /  -16.5 °C
Humitat: Humidity % 51 % 67 %
Velocitat del vent: WindSpeedKMH mph /  0 km/h - 19.2 mph /  30.9 km/h
Racha vent: WindSpeedGustKMH mph /  0 km/h - -
Vent:- - NW
Pressio: PressurehPa in /  0 hPa 1022.2 in /  34611.7 hPa -
Pluja: 0.0 in /  0 mm    
Historical Graphs
 
 
Tabular Data for Diciembre 9, 2017
Time Temperature Dew Point Pressure Wind Wind Speed Wind Gust Humidity Rainfall Rate (Hourly) solar Conditions
TemperatureC °F /  -17.8 °C DewpointC °F /  -17.8 °C PressurehPa in /  0 hPa Calm     Humidity % HourlyPrecipMM in /  0 mm SolarRadiationWatts/m^2 W/m2 Conditions
00:02 7.8 °F /  -13.4 °C 3.6 °F /  -15.8 °C 1027.3 in /  34784.4 hPa NNW 18.5 mph /  29.8 km/h 18.5 mph /  29.8 km/h 75 % 0.0 in /  0 mm 0.0 W/m2 CLR
00:07 7.8 °F /  -13.4 °C 3.6 °F /  -15.8 °C 1027.3 in /  34784.4 hPa NW 18.5 mph /  29.8 km/h 18.5 mph /  29.8 km/h 75 % 0.0 in /  0 mm 0.0 W/m2 CLR
00:17 7.8 °F /  -13.4 °C 3.6 °F /  -15.8 °C 1027.0 in /  34774.2 hPa NW 20.4 mph /  32.8 km/h 20.4 mph /  32.8 km/h 75 % 0.0 in /  0 mm 0.0 W/m2 CLR
00:22 7.8 °F /  -13.4 °C 3.6 °F /  -15.8 °C 1027.0 in /  34774.2 hPa NW 20.9 mph /  33.6 km/h 20.9 mph /  33.6 km/h 75 % 0.0 in /  0 mm 0.0 W/m2 CLR
00:27 7.8 °F /  -13.4 °C 3.6 °F /  -15.8 °C 1027.0 in /  34774.2 hPa WNW 24.1 mph /  38.8 km/h 24.1 mph /  38.8 km/h 75 % 0.0 in /  0 mm 0.0 W/m2 CLR
00:32 7.8 °F /  -13.4 °C 3.4 °F /  -15.9 °C 1027.0 in /  34774.2 hPa NW 22.2 mph /  35.7 km/h 22.2 mph /  35.7 km/h 74 % 0.0 in /  0 mm 0.0 W/m2 CLR
00:42 7.8 °F /  -13.4 °C 3.4 °F /  -15.9 °C 1026.6 in /  34760.7 hPa NW 18.5 mph /  29.8 km/h 18.5 mph /  29.8 km/h 74 % 0.0 in /  0 mm 0.0 W/m2 CLR
00:47 7.8 °F /  -13.4 °C 3.2 °F /  -16 °C 1026.6 in /  34760.7 hPa NW 19.3 mph /  31.1 km/h 19.3 mph /  31.1 km/h 73 % 0.0 in /  0 mm 0.0 W/m2 CLR
00:52 7.8 °F /  -13.4 °C 3.2 °F /  -16 °C 1027.0 in /  34774.2 hPa NNW 11.1 mph /  17.9 km/h 11.1 mph /  17.9 km/h 73 % 0.0 in /  0 mm 0.0 W/m2 CLR
00:57 7.8 °F /  -13.4 °C 3.2 °F /  -16 °C 1027.0 in /  34774.2 hPa WNW 18.5 mph /  29.8 km/h 18.5 mph /  29.8 km/h 73 % 0.0 in /  0 mm 0.0 W/m2 CLR
01:02 7.8 °F /  -13.4 °C 3.2 °F /  -16 °C 1027.0 in /  34774.2 hPa NNW 29.6 mph /  47.6 km/h 29.6 mph /  47.6 km/h 73 % 0.0 in /  0 mm 0.0 W/m2 CLR
01:07 7.8 °F /  -13.4 °C 3.2 °F /  -16 °C 1027.0 in /  34774.2 hPa NW 19.3 mph /  31.1 km/h 19.3 mph /  31.1 km/h 73 % 0.0 in /  0 mm 0.0 W/m2 CLR
01:12 7.8 °F /  -13.4 °C 3.1 °F /  -16.1 °C 1026.6 in /  34760.7 hPa NNW 24.1 mph /  38.8 km/h 24.1 mph /  38.8 km/h 72 % 0.0 in /  0 mm 0.0 W/m2 CLR
01:17 7.8 °F /  -13.4 °C 3.2 °F /  -16 °C 1026.6 in /  34760.7 hPa NW 25.9 mph /  41.7 km/h 25.9 mph /  41.7 km/h 73 % 0.0 in /  0 mm 0.0 W/m2 CLR
01:19 7.8 °F /  -13.4 °C 3.2 °F /  -16 °C 1026.6 in /  34760.7 hPa NW 25.9 mph /  41.7 km/h 25.9 mph /  41.7 km/h 73 % 0.0 in /  0 mm 0.0 W/m2 CLR
01:24 7.2 °F /  -13.8 °C 2.7 °F /  -16.3 °C 1026.6 in /  34760.7 hPa WNW 25.9 mph /  41.7 km/h 25.9 mph /  41.7 km/h 73 % 0.0 in /  0 mm 0.0 W/m2 CLR
01:29 7.8 °F /  -13.4 °C 3.2 °F /  -16 °C 1026.6 in /  34760.7 hPa NW 24.1 mph /  38.8 km/h 24.1 mph /  38.8 km/h 73 % 0.0 in /  0 mm 0.0 W/m2 CLR
01:39 7.8 °F /  -13.4 °C 3.4 °F /  -15.9 °C 1026.6 in /  34760.7 hPa NNW 40.7 mph /  65.5 km/h 40.7 mph /  65.5 km/h 74 % 0.0 in /  0 mm 0.0 W/m2 CLR
01:49 7.8 °F /  -13.4 °C 3.4 °F /  -15.9 °C 1026.6 in /  34760.7 hPa NW 29.6 mph /  47.6 km/h 29.6 mph /  47.6 km/h 74 % 0.0 in /  0 mm 0.0 W/m2 CLR
01:54 7.8 °F /  -13.4 °C 3.4 °F /  -15.9 °C 1026.6 in /  34760.7 hPa NW 25.9 mph /  41.7 km/h 25.9 mph /  41.7 km/h 74 % 0.0 in /  0 mm 0.0 W/m2 CLR
01:59 7.8 °F /  -13.4 °C 3.4 °F /  -15.9 °C 1026.6 in /  34760.7 hPa NW 24.1 mph /  38.8 km/h 24.1 mph /  38.8 km/h 74 % 0.0 in /  0 mm 0.0 W/m2 CLR
02:04 7.8 °F /  -13.4 °C 3.4 °F /  -15.9 °C 1026.6 in /  34760.7 hPa NNW 22.2 mph /  35.7 km/h 22.2 mph /  35.7 km/h 74 % 0.0 in /  0 mm 0.0 W/m2 CLR
02:09 7.2 °F /  -13.8 °C 2.9 °F /  -16.2 °C 1027.0 in /  34774.2 hPa NW 24.1 mph /  38.8 km/h 24.1 mph /  38.8 km/h 74 % 0.0 in /  0 mm 0.0 W/m2 CLR
02:19 7.2 °F /  -13.8 °C 2.9 °F /  -16.2 °C 1026.6 in /  34760.7 hPa NW 27.8 mph /  44.7 km/h 27.8 mph /  44.7 km/h 74 % 0.0 in /  0 mm 0.0 W/m2 CLR
02:29 7.2 °F /  -13.8 °C 2.9 °F /  -16.2 °C 1026.6 in /  34760.7 hPa NNW 27.4 mph /  44.1 km/h 27.4 mph /  44.1 km/h 74 % 0.0 in /  0 mm 0.0 W/m2 CLR
02:34 7.2 °F /  -13.8 °C 2.9 °F /  -16.2 °C 1026.3 in /  34750.5 hPa NNW 24.1 mph /  38.8 km/h 24.1 mph /  38.8 km/h 74 % 0.0 in /  0 mm 0.0 W/m2 CLR
02:39 7.2 °F /  -13.8 °C 2.9 °F /  -16.2 °C 1026.3 in /  34750.5 hPa WNW 31.5 mph /  50.7 km/h 31.5 mph /  50.7 km/h 74 % 0.0 in /  0 mm 0.0 W/m2 CLR
02:44 7.2 °F /  -13.8 °C 2.9 °F /  -16.2 °C 1026.3 in /  34750.5 hPa NNW 24.1 mph /  38.8 km/h 24.1 mph /  38.8 km/h 74 % 0.0 in /  0 mm 0.0 W/m2 CLR
02:49 7.2 °F /  -13.8 °C 2.9 °F /  -16.2 °C 1026.3 in /  34750.5 hPa NW 31.5 mph /  50.7 km/h 31.5 mph /  50.7 km/h 74 % 0.0 in /  0 mm 0.0 W/m2 CLR
02:54 7.2 °F /  -13.8 °C 3.1 °F /  -16.1 °C 1026.3 in /  34750.5 hPa NW 38.9 mph /  62.6 km/h 38.9 mph /  62.6 km/h 75 % 0.0 in /  0 mm 0.0 W/m2 CLR
03:09 7.2 °F /  -13.8 °C 3.3 °F /  -15.9 °C 1026.3 in /  34750.5 hPa North 27.8 mph /  44.7 km/h 27.8 mph /  44.7 km/h 76 % 0.0 in /  0 mm 0.0 W/m2 CLR
03:14 7.2 °F /  -13.8 °C 3.3 °F /  -15.9 °C 1026.3 in /  34750.5 hPa NW 31.5 mph /  50.7 km/h 31.5 mph /  50.7 km/h 76 % 0.0 in /  0 mm 0.0 W/m2 CLR
03:19 7.2 °F /  -13.8 °C 3.3 °F /  -15.9 °C 1026.3 in /  34750.5 hPa NNW 31.5 mph /  50.7 km/h 31.5 mph /  50.7 km/h 76 % 0.0 in /  0 mm 0.0 W/m2 CLR
03:24 7.2 °F /  -13.8 °C 3.3 °F /  -15.9 °C 1026.3 in /  34750.5 hPa NW 35.2 mph /  56.6 km/h 35.2 mph /  56.6 km/h 76 % 0.0 in /  0 mm 0.0 W/m2 CLR
03:29 7.2 °F /  -13.8 °C 3.3 °F /  -15.9 °C 1026.3 in /  34750.5 hPa NW 29.6 mph /  47.6 km/h 29.6 mph /  47.6 km/h 76 % 0.0 in /  0 mm 0.0 W/m2 CLR
03:34 7.2 °F /  -13.8 °C 3.1 °F /  -16.1 °C 1026.3 in /  34750.5 hPa NW 31.5 mph /  50.7 km/h 31.5 mph /  50.7 km/h 75 % 0.0 in /  0 mm 0.0 W/m2 CLR
03:39 7.2 °F /  -13.8 °C 3.3 °F /  -15.9 °C 1026.3 in /  34750.5 hPa NW 17.7 mph /  28.5 km/h 17.7 mph /  28.5 km/h 76 % 0.0 in /  0 mm 0.0 W/m2 CLR
03:44 7.2 °F /  -13.8 °C 3.3 °F /  -15.9 °C 1026.3 in /  34750.5 hPa NW 27.4 mph /  44.1 km/h 27.4 mph /  44.1 km/h 76 % 0.0 in /  0 mm 0.0 W/m2 CLR
03:54 6.7 °F /  -14.1 °C 2.9 °F /  -16.2 °C 1026.3 in /  34750.5 hPa NW 27.8 mph /  44.7 km/h 27.8 mph /  44.7 km/h 77 % 0.0 in /  0 mm 0.0 W/m2 CLR
04:04 6.7 °F /  -14.1 °C 2.9 °F /  -16.2 °C 1026.0 in /  34740.4 hPa NNW 22.5 mph /  36.2 km/h 22.5 mph /  36.2 km/h 77 % 0.0 in /  0 mm 0.0 W/m2 CLR
04:16 7.2 °F /  -13.8 °C 3.1 °F /  -16.1 °C 1025.6 in /  34726.8 hPa NNW 31.5 mph /  50.7 km/h 31.5 mph /  50.7 km/h 75 % 0.0 in /  0 mm 0.0 W/m2 CLR
04:18 7.2 °F /  -13.8 °C 3.1 °F /  -16.1 °C 1026.0 in /  34740.4 hPa North 31.5 mph /  50.7 km/h 31.5 mph /  50.7 km/h 75 % 0.0 in /  0 mm 0.0 W/m2 CLR
04:23 7.2 °F /  -13.8 °C 3.1 °F /  -16.1 °C 1026.0 in /  34740.4 hPa NNW 31.5 mph /  50.7 km/h 31.5 mph /  50.7 km/h 75 % 0.0 in /  0 mm 0.0 W/m2 CLR
04:24 7.2 °F /  -13.8 °C 2.9 °F /  -16.2 °C 1026.0 in /  34740.4 hPa NNW 48.1 mph /  77.4 km/h 48.1 mph /  77.4 km/h 74 % 0.0 in /  0 mm 0.0 W/m2 CLR
04:29 7.2 °F /  -13.8 °C 2.9 °F /  -16.2 °C 1026.0 in /  34740.4 hPa North 33.3 mph /  53.6 km/h 33.3 mph /  53.6 km/h 74 % 0.0 in /  0 mm 0.0 W/m2 CLR
04:30 7.2 °F /  -13.8 °C 2.9 °F /  -16.2 °C 1026.0 in /  34740.4 hPa North 35.2 mph /  56.6 km/h 35.2 mph /  56.6 km/h 74 % 0.0 in /  0 mm 0.0 W/m2 CLR
04:45 7.2 °F /  -13.8 °C 3.1 °F /  -16.1 °C 1026.0 in /  34740.4 hPa NNW 27.8 mph /  44.7 km/h 27.8 mph /  44.7 km/h 75 % 0.0 in /  0 mm 0.0 W/m2 CLR
04:50 6.7 °F /  -14.1 °C 2.6 °F /  -16.3 °C 1026.0 in /  34740.4 hPa NW 31.5 mph /  50.7 km/h 31.5 mph /  50.7 km/h 75 % 0.0 in /  0 mm 0.0 W/m2 CLR
04:55 6.7 °F /  -14.1 °C 2.6 °F /  -16.3 °C 1026.0 in /  34740.4 hPa North 29.6 mph /  47.6 km/h 29.6 mph /  47.6 km/h 75 % 0.0 in /  0 mm 0.0 W/m2 CLR
05:00 6.7 °F /  -14.1 °C 2.6 °F /  -16.3 °C 1026.0 in /  34740.4 hPa NNW 32.2 mph /  51.8 km/h 32.2 mph /  51.8 km/h 75 % 0.0 in /  0 mm 0.0 W/m2 CLR
05:10 6.7 °F /  -14.1 °C 2.3 °F /  -16.5 °C 1026.0 in /  34740.4 hPa NW 29.6 mph /  47.6 km/h 29.6 mph /  47.6 km/h 74 % 0.0 in /  0 mm 0.0 W/m2 CLR
05:15 6.7 °F /  -14.1 °C 2.3 °F /  -16.5 °C 1026.0 in /  34740.4 hPa NNW 33.3 mph /  53.6 km/h 33.3 mph /  53.6 km/h 74 % 0.0 in /  0 mm 0.0 W/m2 CLR
05:20 6.7 °F /  -14.1 °C 2.3 °F /  -16.5 °C 1026.0 in /  34740.4 hPa NNW 31.5 mph /  50.7 km/h 31.5 mph /  50.7 km/h 74 % 0.0 in /  0 mm 0.0 W/m2 CLR
05:25 6.7 °F /  -14.1 °C 2.6 °F /  -16.3 °C 1026.0 in /  34740.4 hPa NW 31.5 mph /  50.7 km/h 31.5 mph /  50.7 km/h 75 % 0.0 in /  0 mm 0.0 W/m2 CLR
05:40 6.7 °F /  -14.1 °C 2.9 °F /  -16.2 °C 1025.6 in /  34726.8 hPa NW 31.5 mph /  50.7 km/h 31.5 mph /  50.7 km/h 77 % 0.0 in /  0 mm 0.0 W/m2 CLR
05:45 6.7 °F /  -14.1 °C 2.7 °F /  -16.3 °C 1025.6 in /  34726.8 hPa WNW 29.6 mph /  47.6 km/h 29.6 mph /  47.6 km/h 76 % 0.0 in /  0 mm 0.0 W/m2 CLR
05:55 6.7 °F /  -14.1 °C 2.9 °F /  -16.2 °C 1026.0 in /  34740.4 hPa NW 31.5 mph /  50.7 km/h 31.5 mph /  50.7 km/h 77 % 0.0 in /  0 mm 0.0 W/m2 CLR
06:00 6.7 °F /  -14.1 °C 2.9 °F /  -16.2 °C 1026.0 in /  34740.4 hPa NNW 35.2 mph /  56.6 km/h 35.2 mph /  56.6 km/h 77 % 0.0 in /  0 mm 0.0 W/m2 CLR
06:05 6.7 °F /  -14.1 °C 2.9 °F /  -16.2 °C 1026.0 in /  34740.4 hPa NW 22.5 mph /  36.2 km/h 22.5 mph /  36.2 km/h 77 % 0.0 in /  0 mm 0.0 W/m2 CLR
06:10 6.1 °F /  -14.4 °C 2.2 °F /  -16.6 °C 1026.0 in /  34740.4 hPa NNW 16.1 mph /  25.9 km/h 16.1 mph /  25.9 km/h 76 % 0.0 in /  0 mm 0.0 W/m2 CLR
06:15 6.1 °F /  -14.4 °C 2.2 °F /  -16.6 °C 1026.0 in /  34740.4 hPa NNW 17.7 mph /  28.5 km/h 17.7 mph /  28.5 km/h 76 % 0.0 in /  0 mm 0.0 W/m2 CLR
06:25 6.1 °F /  -14.4 °C 2.2 °F /  -16.6 °C 1026.0 in /  34740.4 hPa NW 27.4 mph /  44.1 km/h 27.4 mph /  44.1 km/h 76 % 0.0 in /  0 mm 0.0 W/m2 CLR
06:30 6.1 °F /  -14.4 °C 2.2 °F /  -16.6 °C 1026.0 in /  34740.4 hPa West 24.1 mph /  38.8 km/h 24.1 mph /  38.8 km/h 76 % 0.0 in /  0 mm 0.0 W/m2 CLR
06:35 6.1 °F /  -14.4 °C 2.2 °F /  -16.6 °C 1026.0 in /  34740.4 hPa WNW 25.9 mph /  41.7 km/h 25.9 mph /  41.7 km/h 76 % 0.0 in /  0 mm 0.0 W/m2 CLR
06:40 6.1 °F /  -14.4 °C 2.4 °F /  -16.4 °C 1026.0 in /  34740.4 hPa NW 16.7 mph /  26.9 km/h 16.7 mph /  26.9 km/h 77 % 0.0 in /  0 mm 0.0 W/m2 CLR
06:45 6.1 °F /  -14.4 °C 2.4 °F /  -16.4 °C 1026.0 in /  34740.4 hPa NW 25.7 mph /  41.4 km/h 25.7 mph /  41.4 km/h 77 % 0.0 in /  0 mm 0.0 W/m2 CLR
06:50 6.1 °F /  -14.4 °C 2.4 °F /  -16.4 °C 1026.0 in /  34740.4 hPa North 20.4 mph /  32.8 km/h 20.4 mph /  32.8 km/h 77 % 0.0 in /  0 mm 0.0 W/m2 CLR
06:55 6.1 °F /  -14.4 °C 2.6 °F /  -16.3 °C 1026.0 in /  34740.4 hPa NNW 29.6 mph /  47.6 km/h 29.6 mph /  47.6 km/h 78 % 0.0 in /  0 mm 0.0 W/m2 CLR
07:00 6.1 °F /  -14.4 °C 2.6 °F /  -16.3 °C 1026.0 in /  34740.4 hPa NNW 33.3 mph /  53.6 km/h 33.3 mph /  53.6 km/h 78 % 0.0 in /  0 mm 0.0 W/m2 CLR
07:05 6.1 °F /  -14.4 °C 2.6 °F /  -16.3 °C 1026.0 in /  34740.4 hPa NW 25.9 mph /  41.7 km/h 25.9 mph /  41.7 km/h 78 % 0.0 in /  0 mm 0.0 W/m2 CLR
07:10 6.1 °F /  -14.4 °C 2.6 °F /  -16.3 °C 1026.0 in /  34740.4 hPa WNW 29.6 mph /  47.6 km/h 29.6 mph /  47.6 km/h 78 % 0.0 in /  0 mm 0.0 W/m2 CLR
07:15 6.1 °F /  -14.4 °C 2.4 °F /  -16.4 °C 1026.0 in /  34740.4 hPa NW 24.1 mph /  38.8 km/h 24.1 mph /  38.8 km/h 77 % 0.0 in /  0 mm 0.0 W/m2 CLR
07:20 6.1 °F /  -14.4 °C 2.4 °F /  -16.4 °C 1026.0 in /  34740.4 hPa NW 35.2 mph /  56.6 km/h 35.2 mph /  56.6 km/h 77 % 0.0 in /  0 mm 0.0 W/m2 CLR
07:25 6.1 °F /  -14.4 °C 2.4 °F /  -16.4 °C 1026.0 in /  34740.4 hPa NNW 35.2 mph /  56.6 km/h 35.2 mph /  56.6 km/h 77 % 0.0 in /  0 mm 0.0 W/m2 CLR
07:31 6.1 °F /  -14.4 °C 2.4 °F /  -16.4 °C 1025.6 in /  34726.8 hPa NW 24.1 mph /  38.8 km/h 24.1 mph /  38.8 km/h 77 % 0.0 in /  0 mm 0.0 W/m2 CLR
07:36 6.1 °F /  -14.4 °C 2.4 °F /  -16.4 °C 1026.0 in /  34740.4 hPa NW 24.1 mph /  38.8 km/h 24.1 mph /  38.8 km/h 77 % 0.0 in /  0 mm 0.0 W/m2 CLR
07:41 6.1 °F /  -14.4 °C 2.4 °F /  -16.4 °C 1026.0 in /  34740.4 hPa WNW 27.8 mph /  44.7 km/h 27.8 mph /  44.7 km/h 77 % 0.0 in /  0 mm 0.0 W/m2 CLR
07:46 6.1 °F /  -14.4 °C 2.2 °F /  -16.6 °C 1026.0 in /  34740.4 hPa WNW 24.1 mph /  38.8 km/h 24.1 mph /  38.8 km/h 76 % 0.0 in /  0 mm 0.0 W/m2 CLR
07:51 6.1 °F /  -14.4 °C 2.2 °F /  -16.6 °C 1026.0 in /  34740.4 hPa West 16.7 mph /  26.9 km/h 16.7 mph /  26.9 km/h 76 % 0.0 in /  0 mm 0.0 W/m2 CLR
07:56 6.1 °F /  -14.4 °C 2.2 °F /  -16.6 °C 1026.0 in /  34740.4 hPa West 27.8 mph /  44.7 km/h 27.8 mph /  44.7 km/h 76 % 0.0 in /  0 mm 0.0 W/m2 CLR
08:01 5.6 °F /  -14.7 °C 1.7 °F /  -16.8 °C 1026.0 in /  34740.4 hPa West 27.4 mph /  44.1 km/h 27.4 mph /  44.1 km/h 76 % 0.0 in /  0 mm 0.0 W/m2 CLR
08:06 5.6 °F /  -14.7 °C 1.7 °F /  -16.8 °C 1026.3 in /  34750.5 hPa WNW 13.0 mph /  20.9 km/h 13.0 mph /  20.9 km/h 76 % 0.0 in /  0 mm 0.0 W/m2 OVC
08:11 5.6 °F /  -14.7 °C 1.8 °F /  -16.8 °C 1026.3 in /  34750.5 hPa NW 16.7 mph /  26.9 km/h 16.7 mph /  26.9 km/h 77 % 0.0 in /  0 mm 0.0 W/m2 OVC
08:21 5.6 °F /  -14.7 °C 1.8 °F /  -16.8 °C 1026.3 in /  34750.5 hPa NW 29.6 mph /  47.6 km/h 29.6 mph /  47.6 km/h 77 % 0.0 in /  0 mm 7.0 W/m2 BKN
08:26 6.1 °F /  -14.4 °C 2.4 °F /  -16.4 °C 1026.3 in /  34750.5 hPa NNW 24.1 mph /  38.8 km/h 24.1 mph /  38.8 km/h 77 % 0.0 in /  0 mm 11.0 W/m2 BKN
08:36 6.1 °F /  -14.4 °C 2.2 °F /  -16.6 °C 1026.3 in /  34750.5 hPa NW 22.5 mph /  36.2 km/h 22.5 mph /  36.2 km/h 76 % 0.0 in /  0 mm 14.0 W/m2 BKN
08:41 6.1 °F /  -14.4 °C 2.0 °F /  -16.7 °C 1026.3 in /  34750.5 hPa NW 19.3 mph /  31.1 km/h 19.3 mph /  31.1 km/h 75 % 0.0 in /  0 mm 18.0 W/m2 BKN
08:46 6.1 °F /  -14.4 °C 2.0 °F /  -16.7 °C 1026.6 in /  34760.7 hPa WNW 20.9 mph /  33.6 km/h 20.9 mph /  33.6 km/h 75 % 0.0 in /  0 mm 25.0 W/m2 BKN
08:51 6.1 °F /  -14.4 °C 2.0 °F /  -16.7 °C 1026.6 in /  34760.7 hPa WNW 24.1 mph /  38.8 km/h 24.1 mph /  38.8 km/h 75 % 0.0 in /  0 mm 37.0 W/m2 BKN
08:56 6.1 °F /  -14.4 °C 2.0 °F /  -16.7 °C 1026.6 in /  34760.7 hPa NNW 31.5 mph /  50.7 km/h 31.5 mph /  50.7 km/h 75 % 0.0 in /  0 mm 44.0 W/m2 BKN
09:01 6.1 °F /  -14.4 °C 2.0 °F /  -16.7 °C 1026.6 in /  34760.7 hPa NW 25.9 mph /  41.7 km/h 25.9 mph /  41.7 km/h 75 % 0.0 in /  0 mm 49.0 W/m2 SCT
09:06 6.1 °F /  -14.4 °C 1.8 °F /  -16.8 °C 1026.6 in /  34760.7 hPa WNW 22.2 mph /  35.7 km/h 22.2 mph /  35.7 km/h 74 % 0.0 in /  0 mm 54.0 W/m2 SCT
09:21 6.7 °F /  -14.1 °C 2.2 °F /  -16.6 °C 1027.0 in /  34774.2 hPa NW 14.8 mph /  23.8 km/h 14.8 mph /  23.8 km/h 73 % 0.0 in /  0 mm 98.0 W/m2 CLR
09:31 6.7 °F /  -14.1 °C 2.0 °F /  -16.7 °C 1027.0 in /  34774.2 hPa NNW 25.9 mph /  41.7 km/h 25.9 mph /  41.7 km/h 72 % 0.0 in /  0 mm 134.0 W/m2 CLR
09:46 7.2 °F /  -13.8 °C 2.1 °F /  -16.6 °C 1027.3 in /  34784.4 hPa NW 31.5 mph /  50.7 km/h 31.5 mph /  50.7 km/h 70 % 0.0 in /  0 mm 130.0 W/m2 CLR
09:51 7.2 °F /  -13.8 °C 2.1 °F /  -16.6 °C 1027.3 in /  34784.4 hPa NW 25.9 mph /  41.7 km/h 25.9 mph /  41.7 km/h 70 % 0.0 in /  0 mm 139.0 W/m2 CLR
09:56 7.2 °F /  -13.8 °C 2.1 °F /  -16.6 °C 1027.3 in /  34784.4 hPa NW 37.0 mph /  59.5 km/h 37.0 mph /  59.5 km/h 70 % 0.0 in /  0 mm 118.0 W/m2 CLR
10:01 7.8 °F /  -13.4 °C 2.7 °F /  -16.3 °C 1027.3 in /  34784.4 hPa NW 29.6 mph /  47.6 km/h 29.6 mph /  47.6 km/h 70 % 0.0 in /  0 mm 153.0 W/m2 CLR
10:09 7.8 °F /  -13.4 °C 2.8 °F /  -16.2 °C 1027.3 in /  34784.4 hPa NW 25.9 mph /  41.7 km/h 25.9 mph /  41.7 km/h 71 % 0.0 in /  0 mm 171.0 W/m2 CLR
10:14 7.8 °F /  -13.4 °C 2.8 °F /  -16.2 °C 1027.3 in /  34784.4 hPa NW 31.5 mph /  50.7 km/h 31.5 mph /  50.7 km/h 71 % 0.0 in /  0 mm 211.0 W/m2 CLR
10:19 7.8 °F /  -13.4 °C 2.8 °F /  -16.2 °C 1027.3 in /  34784.4 hPa NW 22.2 mph /  35.7 km/h 22.2 mph /  35.7 km/h 71 % 0.0 in /  0 mm 234.0 W/m2 CLR
10:24 7.8 °F /  -13.4 °C 2.8 °F /  -16.2 °C 1027.3 in /  34784.4 hPa NNW 30.6 mph /  49.2 km/h 30.6 mph /  49.2 km/h 71 % 0.0 in /  0 mm 258.0 W/m2 CLR
10:29 7.8 °F /  -13.4 °C 2.7 °F /  -16.3 °C 1027.3 in /  34784.4 hPa NW 31.5 mph /  50.7 km/h 31.5 mph /  50.7 km/h 70 % 0.0 in /  0 mm 237.0 W/m2 CLR
10:34 8.3 °F /  -13.2 °C 3.2 °F /  -16 °C 1027.3 in /  34784.4 hPa NW 25.9 mph /  41.7 km/h 25.9 mph /  41.7 km/h 70 % 0.0 in /  0 mm 257.0 W/m2 CLR
10:39 8.3 °F /  -13.2 °C 3.2 °F /  -16 °C 1027.3 in /  34784.4 hPa NW 27.8 mph /  44.7 km/h 27.8 mph /  44.7 km/h 70 % 0.0 in /  0 mm 234.0 W/m2 CLR
10:49 8.3 °F /  -13.2 °C 3.0 °F /  -16.1 °C 1027.3 in /  34784.4 hPa NW 32.2 mph /  51.8 km/h 32.2 mph /  51.8 km/h 69 % 0.0 in /  0 mm 297.0 W/m2 CLR
10:59 8.3 °F /  -13.2 °C 2.1 °F /  -16.6 °C 1027.7 in /  34797.9 hPa NNW 38.9 mph /  62.6 km/h 38.9 mph /  62.6 km/h 65 % 0.0 in /  0 mm 334.0 W/m2 CLR
11:09 8.9 °F /  -12.8 °C 2.7 °F /  -16.3 °C 1027.7 in /  34797.9 hPa NW 27.8 mph /  44.7 km/h 27.8 mph /  44.7 km/h 65 % 0.0 in /  0 mm 341.0 W/m2 CLR
11:14 9.4 °F /  -12.6 °C 2.9 °F /  -16.2 °C 1027.7 in /  34797.9 hPa NNW 35.2 mph /  56.6 km/h 35.2 mph /  56.6 km/h 64 % 0.0 in /  0 mm 353.0 W/m2 CLR
11:19 9.4 °F /  -12.6 °C 2.7 °F /  -16.3 °C 1027.7 in /  34797.9 hPa NW 33.3 mph /  53.6 km/h 33.3 mph /  53.6 km/h 63 % 0.0 in /  0 mm 366.0 W/m2 CLR
11:24 9.4 °F /  -12.6 °C 2.5 °F /  -16.4 °C 1027.7 in /  34797.9 hPa NNW 42.6 mph /  68.6 km/h 42.6 mph /  68.6 km/h 62 % 0.0 in /  0 mm 373.0 W/m2 CLR
11:34 9.4 °F /  -12.6 °C 2.5 °F /  -16.4 °C 1027.7 in /  34797.9 hPa NNW 38.9 mph /  62.6 km/h 38.9 mph /  62.6 km/h 62 % 0.0 in /  0 mm 390.0 W/m2 CLR
11:44 10.0 °F /  -12.2 °C 2.6 °F /  -16.3 °C 1027.3 in /  34784.4 hPa NNW 35.2 mph /  56.6 km/h 35.2 mph /  56.6 km/h 60 % 0.0 in /  0 mm 397.0 W/m2 CLR
11:49 10.0 °F /  -12.2 °C 2.6 °F /  -16.3 °C 1027.3 in /  34784.4 hPa NW 33.3 mph /  53.6 km/h 33.3 mph /  53.6 km/h 60 % 0.0 in /  0 mm 401.0 W/m2 CLR
12:04 10.0 °F /  -12.2 °C 2.1 °F /  -16.6 °C 1027.7 in /  34797.9 hPa NW 32.2 mph /  51.8 km/h 32.2 mph /  51.8 km/h 58 % 0.0 in /  0 mm 418.0 W/m2 CLR
12:09 10.6 °F /  -11.9 °C 2.4 °F /  -16.4 °C 1027.7 in /  34797.9 hPa NNW 38.9 mph /  62.6 km/h 38.9 mph /  62.6 km/h 57 % 0.0 in /  0 mm 431.0 W/m2 CLR
12:14 10.6 °F /  -11.9 °C 2.4 °F /  -16.4 °C 1027.7 in /  34797.9 hPa NNW 41.8 mph /  67.3 km/h 41.8 mph /  67.3 km/h 57 % 0.0 in /  0 mm 427.0 W/m2 CLR
12:19 10.6 °F /  -11.9 °C 2.4 °F /  -16.4 °C 1027.7 in /  34797.9 hPa NNW 35.2 mph /  56.6 km/h 35.2 mph /  56.6 km/h 57 % 0.0 in /  0 mm 431.0 W/m2 CLR
12:24 10.6 °F /  -11.9 °C 2.4 °F /  -16.4 °C 1027.7 in /  34797.9 hPa North 33.3 mph /  53.6 km/h 33.3 mph /  53.6 km/h 57 % 0.0 in /  0 mm 434.0 W/m2 CLR
12:29 10.6 °F /  -11.9 °C 2.4 °F /  -16.4 °C 1027.3 in /  34784.4 hPa NNW 27.4 mph /  44.1 km/h 27.4 mph /  44.1 km/h 57 % 0.0 in /  0 mm 431.0 W/m2 CLR
12:34 10.6 °F /  -11.9 °C 2.4 °F /  -16.4 °C 1027.7 in /  34797.9 hPa NNW 42.6 mph /  68.6 km/h 42.6 mph /  68.6 km/h 57 % 0.0 in /  0 mm 436.0 W/m2 CLR
12:39 10.6 °F /  -11.9 °C 2.4 °F /  -16.4 °C 1027.3 in /  34784.4 hPa NNW 35.2 mph /  56.6 km/h 35.2 mph /  56.6 km/h 57 % 0.0 in /  0 mm 450.0 W/m2 CLR
12:44 10.6 °F /  -11.9 °C 2.4 °F /  -16.4 °C 1027.3 in /  34784.4 hPa North 31.5 mph /  50.7 km/h 31.5 mph /  50.7 km/h 57 % 0.0 in /  0 mm 403.0 W/m2 CLR
12:49 10.6 °F /  -11.9 °C 2.6 °F /  -16.3 °C 1027.3 in /  34784.4 hPa NNW 29.6 mph /  47.6 km/h 29.6 mph /  47.6 km/h 58 % 0.0 in /  0 mm 403.0 W/m2 CLR
12:54 10.6 °F /  -11.9 °C 2.4 °F /  -16.4 °C 1027.3 in /  34784.4 hPa NNW 27.8 mph /  44.7 km/h 27.8 mph /  44.7 km/h 57 % 0.0 in /  0 mm 352.0 W/m2 CLR
12:59 10.6 °F /  -11.9 °C 2.1 °F /  -16.6 °C 1027.3 in /  34784.4 hPa NNW 24.1 mph /  38.8 km/h 24.1 mph /  38.8 km/h 56 % 0.0 in /  0 mm 439.0 W/m2 CLR
13:04 10.6 °F /  -11.9 °C 2.1 °F /  -16.6 °C 1027.0 in /  34774.2 hPa NNW 27.8 mph /  44.7 km/h 27.8 mph /  44.7 km/h 56 % 0.0 in /  0 mm 438.0 W/m2 CLR
13:09 11.1 °F /  -11.6 °C 2.4 °F /  -16.4 °C 1027.0 in /  34774.2 hPa NW 37.0 mph /  59.5 km/h 37.0 mph /  59.5 km/h 55 % 0.0 in /  0 mm 446.0 W/m2 CLR
13:19 11.1 °F /  -11.6 °C 2.2 °F /  -16.6 °C 1027.0 in /  34774.2 hPa North 31.5 mph /  50.7 km/h 31.5 mph /  50.7 km/h 54 % 0.0 in /  0 mm 434.0 W/m2 CLR
13:24 11.1 °F /  -11.6 °C 2.4 °F /  -16.4 °C 1026.6 in /  34760.7 hPa WNW 29.6 mph /  47.6 km/h 29.6 mph /  47.6 km/h 55 % 0.0 in /  0 mm 432.0 W/m2 CLR
13:29 11.7 °F /  -11.3 °C 2.7 °F /  -16.3 °C 1026.6 in /  34760.7 hPa North 38.6 mph /  62.1 km/h 38.6 mph /  62.1 km/h 54 % 0.0 in /  0 mm 432.0 W/m2 CLR
13:34 11.7 °F /  -11.3 °C 2.9 °F /  -16.2 °C 1026.6 in /  34760.7 hPa NNW 33.3 mph /  53.6 km/h 33.3 mph /  53.6 km/h 55 % 0.0 in /  0 mm 434.0 W/m2 CLR
13:39 11.7 °F /  -11.3 °C 2.7 °F /  -16.3 °C 1026.6 in /  34760.7 hPa NNW 29.0 mph /  46.7 km/h 29.0 mph /  46.7 km/h 54 % 0.0 in /  0 mm 436.0 W/m2 CLR
13:44 11.7 °F /  -11.3 °C 2.7 °F /  -16.3 °C 1026.6 in /  34760.7 hPa North 29.6 mph /  47.6 km/h 29.6 mph /  47.6 km/h 54 % 0.0 in /  0 mm 443.0 W/m2 CLR
13:54 11.7 °F /  -11.3 °C 2.4 °F /  -16.4 °C 1026.3 in /  34750.5 hPa NNW 31.5 mph /  50.7 km/h 31.5 mph /  50.7 km/h 53 % 0.0 in /  0 mm 418.0 W/m2 CLR
13:59 12.2 °F /  -11 °C 2.9 °F /  -16.2 °C 1026.3 in /  34750.5 hPa NW 37.0 mph /  59.5 km/h 37.0 mph /  59.5 km/h 53 % 0.0 in /  0 mm 427.0 W/m2 CLR
14:04 12.2 °F /  -11 °C 2.7 °F /  -16.3 °C 1026.3 in /  34750.5 hPa North 35.2 mph /  56.6 km/h 35.2 mph /  56.6 km/h 52 % 0.0 in /  0 mm 418.0 W/m2 CLR
14:09 12.2 °F /  -11 °C 2.7 °F /  -16.3 °C 1026.3 in /  34750.5 hPa NNW 33.3 mph /  53.6 km/h 33.3 mph /  53.6 km/h 52 % 0.0 in /  0 mm 406.0 W/m2 CLR
14:14 12.2 °F /  -11 °C 2.9 °F /  -16.2 °C 1026.0 in /  34740.4 hPa NW 31.5 mph /  50.7 km/h 31.5 mph /  50.7 km/h 53 % 0.0 in /  0 mm 390.0 W/m2 CLR
14:19 11.7 °F /  -11.3 °C 2.1 °F /  -16.6 °C 1026.0 in /  34740.4 hPa North 32.2 mph /  51.8 km/h 32.2 mph /  51.8 km/h 52 % 0.0 in /  0 mm 387.0 W/m2 CLR
14:34 12.2 °F /  -11 °C 2.7 °F /  -16.3 °C 1026.0 in /  34740.4 hPa NNW 29.6 mph /  47.6 km/h 29.6 mph /  47.6 km/h 52 % 0.0 in /  0 mm 367.0 W/m2 CLR
14:39 12.2 °F /  -11 °C 2.7 °F /  -16.3 °C 1025.6 in /  34726.8 hPa NNW 20.4 mph /  32.8 km/h 20.6 mph /  33.2 km/h 52 % 0.0 in /  0 mm 359.0 W/m2 CLR
14:41 12.2 °F /  -11 °C 2.4 °F /  -16.4 °C 1025.6 in /  34726.8 hPa NNW 27.8 mph /  44.7 km/h 27.8 mph /  44.7 km/h 51 % 0.0 in /  0 mm 359.0 W/m2 CLR
14:51 12.8 °F /  -10.7 °C 3.2 °F /  -16 °C 1025.6 in /  34726.8 hPa NNW 22.5 mph /  36.2 km/h 22.5 mph /  36.2 km/h 52 % 0.0 in /  0 mm 348.0 W/m2 CLR
15:01 12.8 °F /  -10.7 °C 2.9 °F /  -16.2 °C 1025.3 in /  34716.7 hPa NNW 14.8 mph /  23.8 km/h 14.8 mph /  23.8 km/h 51 % 0.0 in /  0 mm 255.0 W/m2 CLR
15:06 12.2 °F /  -11 °C 2.4 °F /  -16.4 °C 1025.3 in /  34716.7 hPa NNW 27.8 mph /  44.7 km/h 27.8 mph /  44.7 km/h 51 % 0.0 in /  0 mm 283.0 W/m2 CLR
15:11 12.2 °F /  -11 °C 2.7 °F /  -16.3 °C 1025.3 in /  34716.7 hPa NNW 20.4 mph /  32.8 km/h 20.4 mph /  32.8 km/h 52 % 0.0 in /  0 mm 297.0 W/m2 CLR
15:16 12.2 °F /  -11 °C 2.7 °F /  -16.3 °C 1025.3 in /  34716.7 hPa NNW 20.4 mph /  32.8 km/h 20.4 mph /  32.8 km/h 52 % 0.0 in /  0 mm 343.0 W/m2 CLR
15:21 12.2 °F /  -11 °C 2.7 °F /  -16.3 °C 1024.9 in /  34703.1 hPa NNW 29.6 mph /  47.6 km/h 29.6 mph /  47.6 km/h 52 % 0.0 in /  0 mm 345.0 W/m2 CLR
15:26 12.8 °F /  -10.7 °C 3.2 °F /  -16 °C 1025.3 in /  34716.7 hPa NNW 24.1 mph /  38.8 km/h 24.1 mph /  38.8 km/h 52 % 0.0 in /  0 mm 313.0 W/m2 CLR
15:31 12.8 °F /  -10.7 °C 3.2 °F /  -16 °C 1025.3 in /  34716.7 hPa NNW 27.8 mph /  44.7 km/h 27.8 mph /  44.7 km/h 52 % 0.0 in /  0 mm 262.0 W/m2 CLR
15:37 12.2 °F /  -11 °C 2.7 °F /  -16.3 °C 1025.3 in /  34716.7 hPa North 25.9 mph /  41.7 km/h 25.9 mph /  41.7 km/h 52 % 0.0 in /  0 mm 239.0 W/m2 CLR
15:42 12.2 °F /  -11 °C 2.7 °F /  -16.3 °C 1024.9 in /  34703.1 hPa WNW 16.7 mph /  26.9 km/h 16.7 mph /  26.9 km/h 52 % 0.0 in /  0 mm 227.0 W/m2 CLR
15:57 11.7 °F /  -11.3 °C 2.1 °F /  -16.6 °C 1024.9 in /  34703.1 hPa North 19.3 mph /  31.1 km/h 19.3 mph /  31.1 km/h 52 % 0.0 in /  0 mm 70.0 W/m2 CLR
16:02 11.7 °F /  -11.3 °C 2.4 °F /  -16.4 °C 1024.9 in /  34703.1 hPa NW 13.0 mph /  20.9 km/h 13.0 mph /  20.9 km/h 53 % 0.0 in /  0 mm 65.0 W/m2 FEW
16:12 11.1 °F /  -11.6 °C 2.2 °F /  -16.6 °C 1024.9 in /  34703.1 hPa North 16.7 mph /  26.9 km/h 16.7 mph /  26.9 km/h 54 % 0.0 in /  0 mm 67.0 W/m2 SCT
16:17 11.1 °F /  -11.6 °C 2.2 °F /  -16.6 °C 1024.9 in /  34703.1 hPa North 14.8 mph /  23.8 km/h 14.8 mph /  23.8 km/h 54 % 0.0 in /  0 mm 67.0 W/m2 FEW
16:22 11.1 °F /  -11.6 °C 2.2 °F /  -16.6 °C 1024.6 in /  34693 hPa NNW 14.8 mph /  23.8 km/h 14.8 mph /  23.8 km/h 54 % 0.0 in /  0 mm 54.0 W/m2 FEW
16:27 11.1 °F /  -11.6 °C 2.2 °F /  -16.6 °C 1024.9 in /  34703.1 hPa North 17.7 mph /  28.5 km/h 17.7 mph /  28.5 km/h 54 % 0.0 in /  0 mm 51.0 W/m2 SCT
16:32 11.1 °F /  -11.6 °C 2.4 °F /  -16.4 °C 1024.9 in /  34703.1 hPa North 16.7 mph /  26.9 km/h 16.7 mph /  26.9 km/h 55 % 0.0 in /  0 mm 49.0 W/m2 SCT
16:42 11.1 °F /  -11.6 °C 2.4 °F /  -16.4 °C 1024.9 in /  34703.1 hPa NNE 13.0 mph /  20.9 km/h 13.0 mph /  20.9 km/h 55 % 0.0 in /  0 mm 30.0 W/m2 BKN
16:47 10.6 °F /  -11.9 °C 2.1 °F /  -16.6 °C 1024.9 in /  34703.1 hPa NNE 13.0 mph /  20.9 km/h 13.0 mph /  20.9 km/h 56 % 0.0 in /  0 mm 19.0 W/m2 BKN
16:52 10.6 °F /  -11.9 °C 2.1 °F /  -16.6 °C 1024.9 in /  34703.1 hPa NNE 9.3 mph /  15 km/h 9.3 mph /  15 km/h 56 % 0.0 in /  0 mm 12.0 W/m2 BKN
16:57 10.6 °F /  -11.9 °C 2.1 °F /  -16.6 °C 1024.9 in /  34703.1 hPa NNE 13.0 mph /  20.9 km/h 13.0 mph /  20.9 km/h 56 % 0.0 in /  0 mm 11.0 W/m2 BKN
17:02 10.6 °F /  -11.9 °C 2.4 °F /  -16.4 °C 1024.9 in /  34703.1 hPa NNE 16.7 mph /  26.9 km/h 16.7 mph /  26.9 km/h 57 % 0.0 in /  0 mm 7.0 W/m2 BKN
17:07 10.6 °F /  -11.9 °C 2.4 °F /  -16.4 °C 1024.6 in /  34693 hPa NNW 14.8 mph /  23.8 km/h 14.8 mph /  23.8 km/h 57 % 0.0 in /  0 mm 9.0 W/m2 BKN
17:12 10.0 °F /  -12.2 °C 1.9 °F /  -16.7 °C 1024.6 in /  34693 hPa North 13.0 mph /  20.9 km/h 13.0 mph /  20.9 km/h 57 % 0.0 in /  0 mm 9.0 W/m2 BKN
17:22 10.0 °F /  -12.2 °C 2.1 °F /  -16.6 °C 1024.6 in /  34693 hPa North 5.6 mph /  9 km/h 5.8 mph /  9.3 km/h 58 % 0.0 in /  0 mm 5.0 W/m2 OVC
17:27 10.0 °F /  -12.2 °C 2.1 °F /  -16.6 °C 1024.6 in /  34693 hPa Calm     58 % 0.0 in /  0 mm 0.0 W/m2 OVC
17:32 10.0 °F /  -12.2 °C 2.1 °F /  -16.6 °C 1024.6 in /  34693 hPa Calm     58 % 0.0 in /  0 mm 0.0 W/m2 OVC
17:37 10.0 °F /  -12.2 °C 2.1 °F /  -16.6 °C 1024.6 in /  34693 hPa Calm     58 % 0.0 in /  0 mm 0.0 W/m2 OVC
17:42 9.4 °F /  -12.6 °C 1.6 °F /  -16.9 °C 1024.6 in /  34693 hPa Calm     58 % 0.0 in /  0 mm 0.0 W/m2 CLR
17:47 9.4 °F /  -12.6 °C 1.6 °F /  -16.9 °C 1024.6 in /  34693 hPa Calm     58 % 0.0 in /  0 mm 0.0 W/m2 CLR
17:52 9.4 °F /  -12.6 °C 1.8 °F /  -16.8 °C 1024.6 in /  34693 hPa Calm     59 % 0.0 in /  0 mm 0.0 W/m2 CLR
17:57 9.4 °F /  -12.6 °C 1.8 °F /  -16.8 °C 1024.6 in /  34693 hPa Calm     59 % 0.0 in /  0 mm 0.0 W/m2 CLR
18:02 9.4 °F /  -12.6 °C 1.8 °F /  -16.8 °C 1024.6 in /  34693 hPa Calm     59 % 0.0 in /  0 mm 0.0 W/m2 CLR
18:07 9.4 °F /  -12.6 °C 1.8 °F /  -16.8 °C 1024.6 in /  34693 hPa Calm     59 % 0.0 in /  0 mm 0.0 W/m2 CLR
18:12 9.4 °F /  -12.6 °C 2.1 °F /  -16.6 °C 1024.6 in /  34693 hPa Calm     60 % 0.0 in /  0 mm 0.0 W/m2 CLR
18:17 9.4 °F /  -12.6 °C 1.8 °F /  -16.8 °C 1024.6 in /  34693 hPa Calm     59 % 0.0 in /  0 mm 0.0 W/m2 CLR
18:22 9.4 °F /  -12.6 °C 1.8 °F /  -16.8 °C 1024.6 in /  34693 hPa Calm     59 % 0.0 in /  0 mm 0.0 W/m2 CLR
18:23 9.4 °F /  -12.6 °C 1.8 °F /  -16.8 °C 1024.6 in /  34693 hPa Calm     59 % 0.0 in /  0 mm 0.0 W/m2 CLR
18:28 9.4 °F /  -12.6 °C 2.1 °F /  -16.6 °C 1024.6 in /  34693 hPa Calm     60 % 0.0 in /  0 mm 0.0 W/m2 CLR
18:33 8.9 °F /  -12.8 °C 1.6 °F /  -16.9 °C 1024.6 in /  34693 hPa Calm     60 % 0.0 in /  0 mm 0.0 W/m2 CLR
18:43 8.9 °F /  -12.8 °C 1.6 °F /  -16.9 °C 1024.6 in /  34693 hPa Calm     60 % 0.0 in /  0 mm 0.0 W/m2 CLR
18:48 8.9 °F /  -12.8 °C 1.6 °F /  -16.9 °C 1024.6 in /  34693 hPa Calm     60 % 0.0 in /  0 mm 0.0 W/m2 CLR
18:53 8.3 °F /  -13.2 °C 1.0 °F /  -17.2 °C 1024.3 in /  34682.8 hPa Calm     60 % 0.0 in /  0 mm 0.0 W/m2 CLR
18:58 8.3 °F /  -13.2 °C 1.0 °F /  -17.2 °C 1024.3 in /  34682.8 hPa Calm     60 % 0.0 in /  0 mm 0.0 W/m2 CLR
19:03 8.3 °F /  -13.2 °C 1.0 °F /  -17.2 °C 1024.3 in /  34682.8 hPa Calm     60 % 0.0 in /  0 mm 0.0 W/m2 CLR
19:08 8.3 °F /  -13.2 °C 1.0 °F /  -17.2 °C 1024.3 in /  34682.8 hPa Calm     60 % 0.0 in /  0 mm 0.0 W/m2 CLR
19:13 7.8 °F /  -13.4 °C 0.7 °F /  -17.4 °C 1024.3 in /  34682.8 hPa Calm     61 % 0.0 in /  0 mm 0.0 W/m2 CLR
19:23 7.2 °F /  -13.8 °C 0.4 °F /  -17.6 °C 1024.3 in /  34682.8 hPa Calm     62 % 0.0 in /  0 mm 0.0 W/m2 CLR
19:28 7.2 °F /  -13.8 °C 0.4 °F /  -17.6 °C 1023.9 in /  34669.3 hPa Calm     62 % 0.0 in /  0 mm 0.0 W/m2 CLR
19:33 6.7 °F /  -14.1 °C -0.1 °F /  -17.8 °C 1023.9 in /  34669.3 hPa Calm     62 % 0.0 in /  0 mm 0.0 W/m2 CLR
19:38 6.1 °F /  -14.4 °C -0.6 °F /  -18.1 °C 1023.9 in /  34669.3 hPa Calm     62 % 0.0 in /  0 mm 0.0 W/m2 CLR
19:48 5.6 °F /  -14.7 °C -0.9 °F /  -18.3 °C 1023.9 in /  34669.3 hPa Calm     63 % 0.0 in /  0 mm 0.0 W/m2 CLR
19:53 5.6 °F /  -14.7 °C -0.5 °F /  -18.1 °C 1023.9 in /  34669.3 hPa Calm     65 % 0.0 in /  0 mm 0.0 W/m2 CLR
19:58 6.1 °F /  -14.4 °C 0.0 °F /  -17.8 °C 1023.9 in /  34669.3 hPa Calm     65 % 0.0 in /  0 mm 0.0 W/m2 CLR
20:03 6.1 °F /  -14.4 °C 0.2 °F /  -17.7 °C 1023.9 in /  34669.3 hPa Calm     66 % 0.0 in /  0 mm 0.0 W/m2 CLR
20:08 6.1 °F /  -14.4 °C 0.2 °F /  -17.7 °C 1023.9 in /  34669.3 hPa Calm     66 % 0.0 in /  0 mm 0.0 W/m2 CLR
20:18 6.7 °F /  -14.1 °C 0.8 °F /  -17.3 °C 1023.9 in /  34669.3 hPa Calm     66 % 0.0 in /  0 mm 0.0 W/m2 CLR
20:28 6.7 °F /  -14.1 °C 0.8 °F /  -17.3 °C 1023.9 in /  34669.3 hPa Calm     66 % 0.0 in /  0 mm 0.0 W/m2 CLR
20:38 6.7 °F /  -14.1 °C 0.9 °F /  -17.3 °C 1023.9 in /  34669.3 hPa Calm     67 % 0.0 in /  0 mm 0.0 W/m2 CLR
20:43 6.7 °F /  -14.1 °C 0.9 °F /  -17.3 °C 1023.9 in /  34669.3 hPa Calm     67 % 0.0 in /  0 mm 0.0 W/m2 CLR
20:48 6.7 °F /  -14.1 °C 1.2 °F /  -17.1 °C 1023.9 in /  34669.3 hPa Calm     68 % 0.0 in /  0 mm 0.0 W/m2 CLR
20:58 6.1 °F /  -14.4 °C 0.8 °F /  -17.3 °C 1023.6 in /  34659.1 hPa Calm     69 % 0.0 in /  0 mm 0.0 W/m2 CLR
21:03 6.1 °F /  -14.4 °C 1.1 °F /  -17.2 °C 1023.6 in /  34659.1 hPa Calm     70 % 0.0 in /  0 mm 0.0 W/m2 CLR
21:08 6.1 °F /  -14.4 °C 1.2 °F /  -17.1 °C 1023.9 in /  34669.3 hPa Calm     71 % 0.0 in /  0 mm 0.0 W/m2 CLR
21:18 6.1 °F /  -14.4 °C 1.2 °F /  -17.1 °C 1023.6 in /  34659.1 hPa Calm     71 % 0.0 in /  0 mm 0.0 W/m2 CLR
21:23 6.1 °F /  -14.4 °C 1.2 °F /  -17.1 °C 1023.6 in /  34659.1 hPa Calm     71 % 0.0 in /  0 mm 0.0 W/m2 CLR
21:28 5.6 °F /  -14.7 °C 0.9 °F /  -17.3 °C 1023.6 in /  34659.1 hPa Calm     72 % 0.0 in /  0 mm 0.0 W/m2 CLR
21:33 5.6 °F /  -14.7 °C 0.9 °F /  -17.3 °C 1023.6 in /  34659.1 hPa Calm     72 % 0.0 in /  0 mm 0.0 W/m2 CLR
21:38 5.6 °F /  -14.7 °C 0.9 °F /  -17.3 °C 1023.6 in /  34659.1 hPa Calm     72 % 0.0 in /  0 mm 0.0 W/m2 CLR
21:43 5.6 °F /  -14.7 °C 0.9 °F /  -17.3 °C 1023.6 in /  34659.1 hPa Calm     72 % 0.0 in /  0 mm 0.0 W/m2 CLR
21:48 5.6 °F /  -14.7 °C 0.9 °F /  -17.3 °C 1023.6 in /  34659.1 hPa Calm     72 % 0.0 in /  0 mm 0.0 W/m2 CLR
21:53 6.1 °F /  -14.4 °C 1.6 °F /  -16.9 °C 1023.6 in /  34659.1 hPa Calm     73 % 0.0 in /  0 mm 0.0 W/m2 CLR
22:03 6.1 °F /  -14.4 °C 1.8 °F /  -16.8 °C 1023.2 in /  34645.6 hPa Calm     74 % 0.0 in /  0 mm 0.0 W/m2 CLR
22:08 6.1 °F /  -14.4 °C 1.8 °F /  -16.8 °C 1023.2 in /  34645.6 hPa Calm     74 % 0.0 in /  0 mm 0.0 W/m2 CLR
22:13 6.1 °F /  -14.4 °C 1.8 °F /  -16.8 °C 1023.2 in /  34645.6 hPa Calm     74 % 0.0 in /  0 mm 0.0 W/m2 CLR
22:28 6.1 °F /  -14.4 °C 2.0 °F /  -16.7 °C 1022.9 in /  34635.4 hPa Calm     75 % 0.0 in /  0 mm 0.0 W/m2 CLR
22:33 6.1 °F /  -14.4 °C 2.0 °F /  -16.7 °C 1022.9 in /  34635.4 hPa Calm     75 % 0.0 in /  0 mm 0.0 W/m2 CLR
22:38 6.1 °F /  -14.4 °C 2.0 °F /  -16.7 °C 1023.2 in /  34645.6 hPa Calm     75 % 0.0 in /  0 mm 0.0 W/m2 CLR
22:40 6.1 °F /  -14.4 °C 2.0 °F /  -16.7 °C 1022.9 in /  34635.4 hPa Calm     75 % 0.0 in /  0 mm 0.0 W/m2 CLR
22:50 6.1 °F /  -14.4 °C 2.0 °F /  -16.7 °C 1022.9 in /  34635.4 hPa Calm     75 % 0.0 in /  0 mm 0.0 W/m2 CLR
22:55 6.1 °F /  -14.4 °C 2.2 °F /  -16.6 °C 1022.6 in /  34625.2 hPa Calm     76 % 0.0 in /  0 mm 0.0 W/m2 CLR
23:00 6.1 °F /  -14.4 °C 2.2 °F /  -16.6 °C 1022.9 in /  34635.4 hPa Calm     76 % 0.0 in /  0 mm 0.0 W/m2 CLR
23:10 6.1 °F /  -14.4 °C 2.4 °F /  -16.4 °C 1022.9 in /  34635.4 hPa Calm     77 % 0.0 in /  0 mm 0.0 W/m2 CLR
23:25 6.7 °F /  -14.1 °C 2.9 °F /  -16.2 °C 1022.9 in /  34635.4 hPa Calm     77 % 0.0 in /  0 mm 0.0 W/m2 CLR
23:30 6.7 °F /  -14.1 °C 2.9 °F /  -16.2 °C 1022.9 in /  34635.4 hPa Calm     77 % 0.0 in /  0 mm 0.0 W/m2 CLR
23:35 6.7 °F /  -14.1 °C 2.9 °F /  -16.2 °C 1022.6 in /  34625.2 hPa Calm     77 % 0.0 in /  0 mm 0.0 W/m2 CLR
23:41 6.7 °F /  -14.1 °C 2.9 °F /  -16.2 °C 1022.6 in /  34625.2 hPa Calm     77 % 0.0 in /  0 mm 0.0 W/m2 CLR
23:46 6.7 °F /  -14.1 °C 2.9 °F /  -16.2 °C 1022.2 in /  34611.7 hPa Calm     77 % 0.0 in /  0 mm 0.0 W/m2 CLR
23:51 6.7 °F /  -14.1 °C 2.7 °F /  -16.3 °C 1022.2 in /  34611.7 hPa Calm     76 % 0.0 in /  0 mm 0.0 W/m2 CLR
23:56 6.7 °F /  -14.1 °C 2.7 °F /  -16.3 °C 1022.2 in /  34611.7 hPa Calm     76 % 0.0 in /  0 mm 0.0 W/m2 CLR
Lo Temps de Massalio
Compliments of Weather Underground - 1 mb